Language selection

My Weather Profile Weather Topics  | 

Haro Strait: Past 24 Hour Conditions

 

English Bay - 46304

05:00 PM PST 20 January 2022Buoy position: 49.3N 123.36W
Disclaimer

This table is a summary of hourly weather conditions for the past 24 hours.
Please note that these observations might not always be representative of weather conditions over their associated marine area.

Date / Time
(PST)
Wind(knots) Wave height(m) Wave period(s) Pressure(kPa) Air tempC) Water tempC)
20 January 2022
17:00 WNW 14 gust 17 0.6 3.0 102.4 7 7
16:00 W 18 gust 21 0.5 2.7 102.3 8 7
15:00 WNW 17 gust 20 0.4 2.4 102.2 9 7
14:00 W 11 gust 12 0.2 3.2 102.2 8 7
13:00 S 3 gust 3 0.2 3.5 102.1 9 7
12:00 ESE 3 gust 4 0.1 2.9 102.1 9 7
11:00 ENE 4 gust 5 0.2 3.0 102.0 8 7
10:00 NE 5 gust 7 0.2 3.4 102.0 8 6
9:00 NE 5 gust 5 0.2 3.1 101.9 7 7
8:00 NNE 9 gust 10 0.2 3.1 101.8 7 7
7:00 ENE 8 gust 11 0.2 2.6 101.8 8 7
6:00 E 8 gust 11 0.2 2.1 101.8 8 7
5:00 ENE 8 gust 10 0.1 2.2 101.8 7 7
4:00 NE 3 gust 5 0.2 2.0 102.0 7 7
3:00 ENE 11 gust 16 0.1 2.2 102.0 7 7
2:00 NE 14 gust 18 0.2 2.2 102.1 6 7
1:00 NE 13 gust 19 0.1 2.0 102.1 6 7
0:00 NNE 15 gust 19 0.3 2.0 102.2 6 7
19 January 2022
23:00 NNE 18 gust 23 0.3 2.1 102.3 6 7
22:00 NE 15 gust 19 0.2 2.0 102.3 6 7
21:00 NNE 16 gust 20 0.1 1.9 102.4 6 7
20:00 NNE 13 gust 17 0.1 3.5 102.4 7 7
19:00 NNE 15 gust 19 0.1 2.6 102.4 7 7
18:00 NNE 17 gust 20 0.2 2.0 102.4 7 7
17:00 NNE 16 gust 19 0.3 2.8 102.5 7 7

Zoom-in to make a selection

Map of Pacific - Georgia Basin marine weather areas Sentry Shoal - 46131 Halibut Bank - 46146 La Perouse Bank - 46206 Georgia Strait - 46303 English Bay - 46304 Discovery Island Esquimalt Harbour Kelp Reefs Malahat Race Rocks Lightstation Saturna Island Sheringham Point University of Victoria Victoria Gonzales Victoria Int'l Airport Ballenas Islands Campbell River Airport Comox Airport Entrance Island Fanny Island Nanaimo Airport Sisters Islets Estevan Point Port Alberni Tofino Airport Grief Point Howe Sound - Pam Rocks Powell River Airport Sechelt Squamish Airport Point Atkinson Sand Heads Lightstation Tsawwassen Ferry Terminal Vancouver Int'l Airport Vancouver Harbour West Vancouver
Legend:
buoy Buoy
land station Land Station

Pacific - Georgia Basin Area

Another Region

What we are doing

Features

Hello Weather

Hello Weather: our upgraded telephone weather service is here. 1-833-794-3556 or 1-833-79HELLO.

Date modified: